sensor_id;sensor_type;location;lat;lon;timestamp;P1;durP1;ratioP1;P2;durP2;ratioP2
6197;SDS011;3132;42.622;23.328;2023-01-24T00:00:34;12.20;;;11.37;;
6197;SDS011;3132;42.622;23.328;2023-01-24T00:03:00;11.80;;;11.00;;
6197;SDS011;3132;42.622;23.328;2023-01-24T00:05:25;11.50;;;10.70;;
6197;SDS011;3132;42.622;23.328;2023-01-24T00:07:50;11.53;;;10.63;;
6197;SDS011;3132;42.622;23.328;2023-01-24T00:10:16;10.77;;;10.07;;
6197;SDS011;3132;42.622;23.328;2023-01-24T00:12:41;11.40;;;10.63;;
6197;SDS011;3132;42.622;23.328;2023-01-24T00:15:08;12.30;;;11.47;;
6197;SDS011;3132;42.622;23.328;2023-01-24T00:17:33;12.00;;;11.30;;
6197;SDS011;3132;42.622;23.328;2023-01-24T00:19:59;12.47;;;11.47;;
6197;SDS011;3132;42.622;23.328;2023-01-24T00:22:24;12.80;;;11.70;;
6197;SDS011;3132;42.622;23.328;2023-01-24T00:24:50;11.77;;;10.87;;
6197;SDS011;3132;42.622;23.328;2023-01-24T00:27:15;12.23;;;11.23;;
6197;SDS011;3132;42.622;23.328;2023-01-24T00:29:41;13.00;;;11.70;;
6197;SDS011;3132;42.622;23.328;2023-01-24T00:32:07;12.60;;;11.40;;
6197;SDS011;3132;42.622;23.328;2023-01-24T00:34:33;11.73;;;10.83;;
6197;SDS011;3132;42.622;23.328;2023-01-24T00:36:58;12.03;;;11.23;;
6197;SDS011;3132;42.622;23.328;2023-01-24T00:39:23;12.07;;;11.10;;
6197;SDS011;3132;42.622;23.328;2023-01-24T00:41:49;12.43;;;11.43;;
6197;SDS011;3132;42.622;23.328;2023-01-24T00:44:14;12.90;;;11.80;;
6197;SDS011;3132;42.622;23.328;2023-01-24T00:46:40;12.57;;;11.40;;
6197;SDS011;3132;42.622;23.328;2023-01-24T00:49:06;11.97;;;11.27;;
6197;SDS011;3132;42.622;23.328;2023-01-24T00:51:32;13.10;;;12.10;;
6197;SDS011;3132;42.622;23.328;2023-01-24T00:53:57;11.40;;;10.60;;
6197;SDS011;3132;42.622;23.328;2023-01-24T00:56:23;12.53;;;11.63;;
6197;SDS011;3132;42.622;23.328;2023-01-24T00:58:48;12.93;;;12.00;;
6197;SDS011;3132;42.622;23.328;2023-01-24T01:01:14;12.67;;;11.57;;
6197;SDS011;3132;42.622;23.328;2023-01-24T01:03:39;14.27;;;12.80;;
6197;SDS011;3132;42.622;23.328;2023-01-24T01:06:06;14.70;;;13.33;;
6197;SDS011;3132;42.622;23.328;2023-01-24T01:08:33;13.23;;;11.93;;
6197;SDS011;3132;42.622;23.328;2023-01-24T01:10:58;13.93;;;12.63;;
6197;SDS011;3132;42.622;23.328;2023-01-24T01:13:24;13.17;;;11.87;;
6197;SDS011;3132;42.622;23.328;2023-01-24T01:15:51;12.17;;;11.20;;
6197;SDS011;3132;42.622;23.328;2023-01-24T01:18:16;13.00;;;11.90;;
6197;SDS011;3132;42.622;23.328;2023-01-24T01:20:41;11.83;;;11.03;;
6197;SDS011;3132;42.622;23.328;2023-01-24T01:23:14;12.83;;;11.83;;
6197;SDS011;3132;42.622;23.328;2023-01-24T01:25:39;12.47;;;11.43;;
6197;SDS011;3132;42.622;23.328;2023-01-24T01:28:04;11.80;;;10.97;;
6197;SDS011;3132;42.622;23.328;2023-01-24T01:30:30;12.50;;;11.60;;
6197;SDS011;3132;42.622;23.328;2023-01-24T01:32:55;12.53;;;11.63;;
6197;SDS011;3132;42.622;23.328;2023-01-24T01:35:20;12.80;;;11.70;;
6197;SDS011;3132;42.622;23.328;2023-01-24T01:37:46;12.17;;;11.37;;
6197;SDS011;3132;42.622;23.328;2023-01-24T01:40:11;13.97;;;12.77;;
6197;SDS011;3132;42.622;23.328;2023-01-24T01:42:39;13.37;;;12.17;;
6197;SDS011;3132;42.622;23.328;2023-01-24T01:48:01;13.03;;;12.00;;
6197;SDS011;3132;42.622;23.328;2023-01-24T01:50:37;12.60;;;11.63;;
6197;SDS011;3132;42.622;23.328;2023-01-24T01:53:05;12.53;;;11.43;;
6197;SDS011;3132;42.622;23.328;2023-01-24T01:55:32;13.53;;;12.23;;
6197;SDS011;3132;42.622;23.328;2023-01-24T01:58:02;12.60;;;11.63;;
6197;SDS011;3132;42.622;23.328;2023-01-24T02:00:27;11.83;;;10.70;;
6197;SDS011;3132;42.622;23.328;2023-01-24T02:02:54;12.40;;;11.57;;
6197;SDS011;3132;42.622;23.328;2023-01-24T02:05:42;11.23;;;10.53;;
6197;SDS011;3132;42.622;23.328;2023-01-24T02:08:08;12.00;;;11.20;;
6197;SDS011;3132;42.622;23.328;2023-01-24T02:10:37;11.90;;;11.13;;
6197;SDS011;3132;42.622;23.328;2023-01-24T02:13:21;13.33;;;12.13;;
6197;SDS011;3132;42.622;23.328;2023-01-24T02:15:47;12.77;;;11.70;;
6197;SDS011;3132;42.622;23.328;2023-01-24T02:18:38;11.50;;;10.70;;
6197;SDS011;3132;42.622;23.328;2023-01-24T02:21:10;12.00;;;11.07;;
6197;SDS011;3132;42.622;23.328;2023-01-24T02:26:23;12.43;;;11.53;;
6197;SDS011;3132;42.622;23.328;2023-01-24T02:31:23;12.27;;;11.37;;
6197;SDS011;3132;42.622;23.328;2023-01-24T02:33:49;12.40;;;11.40;;
6197;SDS011;3132;42.622;23.328;2023-01-24T02:39:12;11.97;;;11.07;;
6197;SDS011;3132;42.622;23.328;2023-01-24T02:41:43;11.93;;;11.00;;
6197;SDS011;3132;42.622;23.328;2023-01-24T02:44:14;12.60;;;11.80;;
6197;SDS011;3132;42.622;23.328;2023-01-24T02:46:44;12.97;;;12.00;;
6197;SDS011;3132;42.622;23.328;2023-01-24T02:49:10;13.10;;;12.00;;
6197;SDS011;3132;42.622;23.328;2023-01-24T02:51:36;12.67;;;11.30;;
6197;SDS011;3132;42.622;23.328;2023-01-24T02:54:20;12.53;;;11.47;;
6197;SDS011;3132;42.622;23.328;2023-01-24T02:56:45;11.70;;;10.60;;
6197;SDS011;3132;42.622;23.328;2023-01-24T02:59:30;11.63;;;10.87;;
6197;SDS011;3132;42.622;23.328;2023-01-24T03:01:55;11.90;;;11.13;;
6197;SDS011;3132;42.622;23.328;2023-01-24T03:04:21;11.37;;;10.43;;
6197;SDS011;3132;42.622;23.328;2023-01-24T03:06:46;11.80;;;10.93;;
6197;SDS011;3132;42.622;23.328;2023-01-24T03:09:13;12.77;;;11.53;;
6197;SDS011;3132;42.622;23.328;2023-01-24T03:11:58;11.20;;;10.50;;
6197;SDS011;3132;42.622;23.328;2023-01-24T03:14:44;11.70;;;10.57;;
6197;SDS011;3132;42.622;23.328;2023-01-24T03:17:31;11.00;;;10.30;;
6197;SDS011;3132;42.622;23.328;2023-01-24T03:20:15;12.07;;;11.27;;
6197;SDS011;3132;42.622;23.328;2023-01-24T03:23:00;11.23;;;10.63;;
6197;SDS011;3132;42.622;23.328;2023-01-24T03:25:44;11.30;;;10.67;;
6197;SDS011;3132;42.622;23.328;2023-01-24T03:28:27;11.83;;;11.03;;
6197;SDS011;3132;42.622;23.328;2023-01-24T03:31:11;11.23;;;10.63;;
6197;SDS011;3132;42.622;23.328;2023-01-24T03:33:55;11.67;;;11.07;;
6197;SDS011;3132;42.622;23.328;2023-01-24T03:36:40;11.03;;;10.43;;
6197;SDS011;3132;42.622;23.328;2023-01-24T03:39:05;11.00;;;10.30;;
6197;SDS011;3132;42.622;23.328;2023-01-24T03:41:49;11.37;;;10.47;;
6197;SDS011;3132;42.622;23.328;2023-01-24T03:44:15;11.77;;;11.07;;
6197;SDS011;3132;42.622;23.328;2023-01-24T03:46:40;11.47;;;10.77;;
6197;SDS011;3132;42.622;23.328;2023-01-24T03:49:06;10.33;;;9.83;;
6197;SDS011;3132;42.622;23.328;2023-01-24T03:51:32;10.17;;;9.67;;
6197;SDS011;3132;42.622;23.328;2023-01-24T03:54:15;11.17;;;10.63;;
6197;SDS011;3132;42.622;23.328;2023-01-24T03:56:41;10.77;;;10.17;;
6197;SDS011;3132;42.622;23.328;2023-01-24T03:59:06;11.63;;;11.03;;
6197;SDS011;3132;42.622;23.328;2023-01-24T04:01:32;11.10;;;10.47;;
6197;SDS011;3132;42.622;23.328;2023-01-24T04:03:57;11.83;;;11.17;;
6197;SDS011;3132;42.622;23.328;2023-01-24T04:06:23;12.10;;;11.30;;
6197;SDS011;3132;42.622;23.328;2023-01-24T04:08:48;11.87;;;11.07;;
6197;SDS011;3132;42.622;23.328;2023-01-24T04:11:14;10.70;;;10.13;;
6197;SDS011;3132;42.622;23.328;2023-01-24T04:13:39;11.03;;;10.43;;
6197;SDS011;3132;42.622;23.328;2023-01-24T04:16:06;10.20;;;9.60;;
6197;SDS011;3132;42.622;23.328;2023-01-24T04:18:32;11.23;;;10.53;;
6197;SDS011;3132;42.622;23.328;2023-01-24T04:21:01;10.37;;;9.67;;
6197;SDS011;3132;42.622;23.328;2023-01-24T04:23:28;10.93;;;10.23;;
6197;SDS011;3132;42.622;23.328;2023-01-24T04:25:53;11.17;;;10.57;;
6197;SDS011;3132;42.622;23.328;2023-01-24T04:28:22;11.83;;;11.13;;
6197;SDS011;3132;42.622;23.328;2023-01-24T04:30:47;9.97;;;9.47;;
6197;SDS011;3132;42.622;23.328;2023-01-24T04:33:13;11.57;;;10.87;;
6197;SDS011;3132;42.622;23.328;2023-01-24T04:35:38;10.90;;;10.30;;
6197;SDS011;3132;42.622;23.328;2023-01-24T04:38:04;12.07;;;11.40;;
6197;SDS011;3132;42.622;23.328;2023-01-24T04:40:29;12.47;;;11.53;;
6197;SDS011;3132;42.622;23.328;2023-01-24T04:42:55;12.27;;;11.47;;
6197;SDS011;3132;42.622;23.328;2023-01-24T04:45:21;11.10;;;10.50;;
6197;SDS011;3132;42.622;23.328;2023-01-24T04:47:47;11.50;;;10.80;;
6197;SDS011;3132;42.622;23.328;2023-01-24T04:50:12;11.97;;;11.17;;
6197;SDS011;3132;42.622;23.328;2023-01-24T04:52:38;11.57;;;10.87;;
6197;SDS011;3132;42.622;23.328;2023-01-24T04:55:03;11.87;;;11.17;;
6197;SDS011;3132;42.622;23.328;2023-01-24T04:57:29;10.50;;;9.90;;
6197;SDS011;3132;42.622;23.328;2023-01-24T04:59:54;11.03;;;10.33;;
6197;SDS011;3132;42.622;23.328;2023-01-24T05:02:20;11.53;;;10.93;;
6197;SDS011;3132;42.622;23.328;2023-01-24T05:04:45;12.37;;;11.60;;
6197;SDS011;3132;42.622;23.328;2023-01-24T05:07:11;11.77;;;10.87;;
6197;SDS011;3132;42.622;23.328;2023-01-24T05:09:37;11.07;;;10.47;;
6197;SDS011;3132;42.622;23.328;2023-01-24T05:12:03;12.00;;;11.27;;
6197;SDS011;3132;42.622;23.328;2023-01-24T05:14:28;11.77;;;10.83;;
6197;SDS011;3132;42.622;23.328;2023-01-24T05:16:54;10.30;;;9.73;;
6197;SDS011;3132;42.622;23.328;2023-01-24T05:19:19;11.67;;;10.87;;
6197;SDS011;3132;42.622;23.328;2023-01-24T05:21:44;11.43;;;10.73;;
6197;SDS011;3132;42.622;23.328;2023-01-24T05:24:10;12.43;;;11.63;;
6197;SDS011;3132;42.622;23.328;2023-01-24T05:26:35;11.03;;;10.33;;
6197;SDS011;3132;42.622;23.328;2023-01-24T05:29:01;10.87;;;10.17;;
6197;SDS011;3132;42.622;23.328;2023-01-24T05:31:26;11.17;;;10.37;;
6197;SDS011;3132;42.622;23.328;2023-01-24T05:33:52;12.23;;;11.30;;
6197;SDS011;3132;42.622;23.328;2023-01-24T05:36:18;11.57;;;10.77;;
6197;SDS011;3132;42.622;23.328;2023-01-24T05:38:45;12.47;;;11.57;;
6197;SDS011;3132;42.622;23.328;2023-01-24T05:41:11;12.67;;;11.70;;
6197;SDS011;3132;42.622;23.328;2023-01-24T05:43:40;12.63;;;11.77;;
6197;SDS011;3132;42.622;23.328;2023-01-24T05:46:08;12.37;;;11.20;;
6197;SDS011;3132;42.622;23.328;2023-01-24T05:48:35;11.60;;;10.83;;
6197;SDS011;3132;42.622;23.328;2023-01-24T05:51:04;12.87;;;11.97;;
6197;SDS011;3132;42.622;23.328;2023-01-24T05:53:31;12.33;;;11.53;;
6197;SDS011;3132;42.622;23.328;2023-01-24T05:55:59;12.60;;;11.60;;
6197;SDS011;3132;42.622;23.328;2023-01-24T05:58:28;11.40;;;10.53;;
6197;SDS011;3132;42.622;23.328;2023-01-24T06:00:55;11.43;;;10.73;;
6197;SDS011;3132;42.622;23.328;2023-01-24T06:03:20;11.90;;;11.00;;
6197;SDS011;3132;42.622;23.328;2023-01-24T06:05:47;12.10;;;11.30;;
6197;SDS011;3132;42.622;23.328;2023-01-24T06:08:14;10.87;;;10.17;;
6197;SDS011;3132;42.622;23.328;2023-01-24T06:10:40;12.87;;;11.87;;
6197;SDS011;3132;42.622;23.328;2023-01-24T06:13:05;12.63;;;11.73;;
6197;SDS011;3132;42.622;23.328;2023-01-24T06:15:30;13.03;;;12.23;;
6197;SDS011;3132;42.622;23.328;2023-01-24T06:17:56;11.70;;;10.90;;
6197;SDS011;3132;42.622;23.328;2023-01-24T06:20:21;10.73;;;10.13;;
6197;SDS011;3132;42.622;23.328;2023-01-24T06:22:54;11.07;;;10.30;;
6197;SDS011;3132;42.622;23.328;2023-01-24T06:25:31;14.57;;;13.47;;
6197;SDS011;3132;42.622;23.328;2023-01-24T06:27:57;12.23;;;11.47;;
6197;SDS011;3132;42.622;23.328;2023-01-24T06:30:23;11.47;;;10.87;;
6197;SDS011;3132;42.622;23.328;2023-01-24T06:33:06;12.03;;;11.23;;
6197;SDS011;3132;42.622;23.328;2023-01-24T06:38:29;11.03;;;10.47;;
6197;SDS011;3132;42.622;23.328;2023-01-24T06:40:57;10.17;;;9.67;;
6197;SDS011;3132;42.622;23.328;2023-01-24T06:43:27;11.67;;;11.07;;
6197;SDS011;3132;42.622;23.328;2023-01-24T06:45:53;11.23;;;10.53;;
6197;SDS011;3132;42.622;23.328;2023-01-24T06:48:20;11.80;;;11.13;;
6197;SDS011;3132;42.622;23.328;2023-01-24T06:50:45;11.70;;;11.00;;
6197;SDS011;3132;42.622;23.328;2023-01-24T06:53:11;11.57;;;10.77;;
6197;SDS011;3132;42.622;23.328;2023-01-24T06:55:39;10.70;;;10.10;;
6197;SDS011;3132;42.622;23.328;2023-01-24T06:58:04;12.30;;;11.50;;
6197;SDS011;3132;42.622;23.328;2023-01-24T07:00:30;12.33;;;11.63;;
6197;SDS011;3132;42.622;23.328;2023-01-24T07:02:59;11.40;;;10.80;;
6197;SDS011;3132;42.622;23.328;2023-01-24T07:05:26;12.77;;;11.80;;
6197;SDS011;3132;42.622;23.328;2023-01-24T07:07:52;12.23;;;11.53;;
6197;SDS011;3132;42.622;23.328;2023-01-24T07:10:18;19.63;;;18.63;;
6197;SDS011;3132;42.622;23.328;2023-01-24T07:12:43;12.17;;;11.37;;
6197;SDS011;3132;42.622;23.328;2023-01-24T07:15:09;14.67;;;13.47;;
6197;SDS011;3132;42.622;23.328;2023-01-24T07:17:35;11.17;;;10.57;;
6197;SDS011;3132;42.622;23.328;2023-01-24T07:20:00;12.57;;;11.60;;
6197;SDS011;3132;42.622;23.328;2023-01-24T07:22:26;12.13;;;11.40;;
6197;SDS011;3132;42.622;23.328;2023-01-24T07:24:52;11.53;;;10.90;;
6197;SDS011;3132;42.622;23.328;2023-01-24T07:27:18;13.10;;;12.20;;
6197;SDS011;3132;42.622;23.328;2023-01-24T07:29:44;14.27;;;12.93;;
6197;SDS011;3132;42.622;23.328;2023-01-24T07:32:10;13.47;;;12.47;;
6197;SDS011;3132;42.622;23.328;2023-01-24T07:34:35;12.67;;;11.77;;
6197;SDS011;3132;42.622;23.328;2023-01-24T07:37:01;14.27;;;13.10;;
6197;SDS011;3132;42.622;23.328;2023-01-24T07:39:29;15.93;;;14.67;;
6197;SDS011;3132;42.622;23.328;2023-01-24T07:41:54;13.23;;;12.13;;
6197;SDS011;3132;42.622;23.328;2023-01-24T07:44:20;14.30;;;13.30;;
6197;SDS011;3132;42.622;23.328;2023-01-24T07:46:45;13.70;;;12.63;;
6197;SDS011;3132;42.622;23.328;2023-01-24T07:49:10;14.97;;;13.87;;
6197;SDS011;3132;42.622;23.328;2023-01-24T07:51:36;14.03;;;12.97;;
6197;SDS011;3132;42.622;23.328;2023-01-24T07:54:01;11.53;;;10.73;;
6197;SDS011;3132;42.622;23.328;2023-01-24T07:56:27;12.00;;;11.17;;
6197;SDS011;3132;42.622;23.328;2023-01-24T07:58:53;12.37;;;11.53;;
6197;SDS011;3132;42.622;23.328;2023-01-24T08:01:22;11.90;;;11.13;;
6197;SDS011;3132;42.622;23.328;2023-01-24T08:03:48;12.27;;;11.47;;
6197;SDS011;3132;42.622;23.328;2023-01-24T08:06:14;12.20;;;11.40;;
6197;SDS011;3132;42.622;23.328;2023-01-24T08:08:40;12.73;;;11.77;;
6197;SDS011;3132;42.622;23.328;2023-01-24T08:11:06;13.13;;;11.87;;
6197;SDS011;3132;42.622;23.328;2023-01-24T08:13:31;12.00;;;11.10;;
6197;SDS011;3132;42.622;23.328;2023-01-24T08:15:58;13.30;;;12.17;;
6197;SDS011;3132;42.622;23.328;2023-01-24T08:18:24;12.73;;;11.83;;
6197;SDS011;3132;42.622;23.328;2023-01-24T08:20:53;12.90;;;11.97;;
6197;SDS011;3132;42.622;23.328;2023-01-24T08:23:19;13.20;;;12.30;;
6197;SDS011;3132;42.622;23.328;2023-01-24T08:25:45;12.77;;;11.87;;
6197;SDS011;3132;42.622;23.328;2023-01-24T08:28:10;12.83;;;12.10;;
6197;SDS011;3132;42.622;23.328;2023-01-24T08:30:35;13.27;;;12.13;;
6197;SDS011;3132;42.622;23.328;2023-01-24T08:33:01;12.80;;;11.83;;
6197;SDS011;3132;42.622;23.328;2023-01-24T08:35:28;11.93;;;10.97;;
6197;SDS011;3132;42.622;23.328;2023-01-24T08:37:54;12.27;;;11.27;;
6197;SDS011;3132;42.622;23.328;2023-01-24T08:40:20;11.73;;;10.93;;
6197;SDS011;3132;42.622;23.328;2023-01-24T08:42:45;11.67;;;10.87;;
6197;SDS011;3132;42.622;23.328;2023-01-24T08:45:10;12.70;;;11.67;;
6197;SDS011;3132;42.622;23.328;2023-01-24T08:47:36;13.70;;;12.67;;
6197;SDS011;3132;42.622;23.328;2023-01-24T08:50:01;14.23;;;13.03;;
6197;SDS011;3132;42.622;23.328;2023-01-24T08:52:27;13.07;;;12.07;;
6197;SDS011;3132;42.622;23.328;2023-01-24T08:54:53;12.77;;;11.67;;
6197;SDS011;3132;42.622;23.328;2023-01-24T08:57:18;13.80;;;12.73;;
6197;SDS011;3132;42.622;23.328;2023-01-24T08:59:43;12.63;;;11.43;;
6197;SDS011;3132;42.622;23.328;2023-01-24T09:02:10;11.97;;;11.07;;
6197;SDS011;3132;42.622;23.328;2023-01-24T09:04:38;11.33;;;10.57;;
6197;SDS011;3132;42.622;23.328;2023-01-24T09:07:03;11.87;;;11.17;;
6197;SDS011;3132;42.622;23.328;2023-01-24T09:09:29;11.50;;;10.63;;
6197;SDS011;3132;42.622;23.328;2023-01-24T09:11:54;12.80;;;11.70;;
6197;SDS011;3132;42.622;23.328;2023-01-24T09:14:20;12.90;;;12.03;;
6197;SDS011;3132;42.622;23.328;2023-01-24T09:16:45;13.13;;;12.07;;
6197;SDS011;3132;42.622;23.328;2023-01-24T09:19:11;12.53;;;11.60;;
6197;SDS011;3132;42.622;23.328;2023-01-24T09:21:37;13.63;;;12.33;;
6197;SDS011;3132;42.622;23.328;2023-01-24T09:24:03;13.20;;;12.10;;
6197;SDS011;3132;42.622;23.328;2023-01-24T09:26:28;13.17;;;12.17;;
6197;SDS011;3132;42.622;23.328;2023-01-24T09:28:54;12.43;;;11.53;;
6197;SDS011;3132;42.622;23.328;2023-01-24T09:31:20;12.80;;;11.77;;
6197;SDS011;3132;42.622;23.328;2023-01-24T09:33:46;12.90;;;12.00;;
6197;SDS011;3132;42.622;23.328;2023-01-24T09:36:11;11.80;;;10.90;;
6197;SDS011;3132;42.622;23.328;2023-01-24T09:38:36;12.33;;;11.33;;
6197;SDS011;3132;42.622;23.328;2023-01-24T09:51:55;10.87;;;10.20;;
6197;SDS011;3132;42.622;23.328;2023-01-24T09:57:27;12.53;;;11.73;;
6197;SDS011;3132;42.622;23.328;2023-01-24T10:00:00;11.87;;;11.17;;
6197;SDS011;3132;42.622;23.328;2023-01-24T10:02:34;12.00;;;11.20;;
6197;SDS011;3132;42.622;23.328;2023-01-24T10:05:00;13.13;;;12.07;;
6197;SDS011;3132;42.622;23.328;2023-01-24T10:20:46;10.67;;;10.07;;
6197;SDS011;3132;42.622;23.328;2023-01-24T10:29:14;12.67;;;11.80;;
6197;SDS011;3132;42.622;23.328;2023-01-24T10:31:44;10.70;;;10.00;;
6197;SDS011;3132;42.622;23.328;2023-01-24T10:34:34;10.40;;;9.80;;
6197;SDS011;3132;42.622;23.328;2023-01-24T10:39:35;10.57;;;9.97;;
6197;SDS011;3132;42.622;23.328;2023-01-24T10:42:01;11.03;;;10.43;;
6197;SDS011;3132;42.622;23.328;2023-01-24T10:44:34;11.40;;;10.77;;
6197;SDS011;3132;42.622;23.328;2023-01-24T10:47:09;12.43;;;11.13;;
6197;SDS011;3132;42.622;23.328;2023-01-24T10:49:38;11.57;;;10.77;;
6197;SDS011;3132;42.622;23.328;2023-01-24T10:52:07;11.70;;;11.00;;
6197;SDS011;3132;42.622;23.328;2023-01-24T10:57:32;11.60;;;10.87;;
6197;SDS011;3132;42.622;23.328;2023-01-24T11:02:52;11.00;;;10.40;;
6197;SDS011;3132;42.622;23.328;2023-01-24T11:05:19;11.00;;;10.40;;
6197;SDS011;3132;42.622;23.328;2023-01-24T11:07:53;11.23;;;10.63;;
6197;SDS011;3132;42.622;23.328;2023-01-24T11:10:28;9.97;;;9.50;;
6197;SDS011;3132;42.622;23.328;2023-01-24T11:13:00;11.43;;;10.93;;
6197;SDS011;3132;42.622;23.328;2023-01-24T11:18:11;11.53;;;10.73;;
6197;SDS011;3132;42.622;23.328;2023-01-24T11:20:44;12.27;;;11.50;;
6197;SDS011;3132;42.622;23.328;2023-01-24T11:23:11;10.10;;;9.50;;
6197;SDS011;3132;42.622;23.328;2023-01-24T11:26:20;10.97;;;10.27;;
6197;SDS011;3132;42.622;23.328;2023-01-24T11:28:45;11.43;;;10.80;;
6197;SDS011;3132;42.622;23.328;2023-01-24T11:31:39;12.63;;;11.93;;
6197;SDS011;3132;42.622;23.328;2023-01-24T11:42:41;11.27;;;10.67;;
6197;SDS011;3132;42.622;23.328;2023-01-24T11:45:32;11.47;;;10.87;;
6197;SDS011;3132;42.622;23.328;2023-01-24T11:51:04;10.60;;;9.90;;
6197;SDS011;3132;42.622;23.328;2023-01-24T11:56:08;10.63;;;9.87;;
6197;SDS011;3132;42.622;23.328;2023-01-24T12:07:55;11.57;;;10.87;;
6197;SDS011;3132;42.622;23.328;2023-01-24T12:16:34;10.60;;;10.10;;
6197;SDS011;3132;42.622;23.328;2023-01-24T12:22:19;10.37;;;9.77;;
6197;SDS011;3132;42.622;23.328;2023-01-24T12:24:50;10.87;;;10.27;;
6197;SDS011;3132;42.622;23.328;2023-01-24T12:27:23;10.03;;;9.53;;
6197;SDS011;3132;42.622;23.328;2023-01-24T12:29:59;10.67;;;10.07;;
6197;SDS011;3132;42.622;23.328;2023-01-24T12:32:28;10.90;;;10.30;;
6197;SDS011;3132;42.622;23.328;2023-01-24T12:38:00;10.70;;;10.03;;
6197;SDS011;3132;42.622;23.328;2023-01-24T12:43:26;9.97;;;9.47;;
6197;SDS011;3132;42.622;23.328;2023-01-24T12:46:17;11.87;;;10.87;;
6197;SDS011;3132;42.622;23.328;2023-01-24T12:49:11;10.33;;;9.73;;
6197;SDS011;3132;42.622;23.328;2023-01-24T12:51:51;10.90;;;10.30;;
6197;SDS011;3132;42.622;23.328;2023-01-24T12:54:32;11.30;;;10.70;;
6197;SDS011;3132;42.622;23.328;2023-01-24T12:57:19;11.10;;;10.60;;
6197;SDS011;3132;42.622;23.328;2023-01-24T12:59:48;10.67;;;10.17;;
6197;SDS011;3132;42.622;23.328;2023-01-24T13:10:02;11.43;;;10.83;;
6197;SDS011;3132;42.622;23.328;2023-01-24T13:12:36;10.17;;;9.67;;
6197;SDS011;3132;42.622;23.328;2023-01-24T13:15:08;11.63;;;10.83;;
6197;SDS011;3132;42.622;23.328;2023-01-24T13:17:38;11.80;;;11.20;;
6197;SDS011;3132;42.622;23.328;2023-01-24T13:25:33;10.87;;;10.20;;
6197;SDS011;3132;42.622;23.328;2023-01-24T13:34:40;11.40;;;10.80;;
6197;SDS011;3132;42.622;23.328;2023-01-24T13:37:31;11.03;;;10.33;;
6197;SDS011;3132;42.622;23.328;2023-01-24T13:40:04;11.43;;;10.90;;
6197;SDS011;3132;42.622;23.328;2023-01-24T13:42:35;12.47;;;11.67;;
6197;SDS011;3132;42.622;23.328;2023-01-24T13:47:51;10.07;;;9.57;;
6197;SDS011;3132;42.622;23.328;2023-01-24T13:50:35;10.57;;;10.07;;
6197;SDS011;3132;42.622;23.328;2023-01-24T13:53:01;11.03;;;10.43;;
6197;SDS011;3132;42.622;23.328;2023-01-24T14:00:52;11.60;;;11.00;;
6197;SDS011;3132;42.622;23.328;2023-01-24T14:08:32;11.00;;;10.40;;
6197;SDS011;3132;42.622;23.328;2023-01-24T14:21:23;11.97;;;11.37;;
6197;SDS011;3132;42.622;23.328;2023-01-24T14:23:55;11.30;;;10.70;;
6197;SDS011;3132;42.622;23.328;2023-01-24T14:26:24;9.67;;;9.10;;
6197;SDS011;3132;42.622;23.328;2023-01-24T14:28:55;10.80;;;10.27;;
6197;SDS011;3132;42.622;23.328;2023-01-24T14:31:25;10.83;;;10.23;;
6197;SDS011;3132;42.622;23.328;2023-01-24T14:34:00;11.47;;;10.83;;
6197;SDS011;3132;42.622;23.328;2023-01-24T14:36:40;11.33;;;10.63;;
6197;SDS011;3132;42.622;23.328;2023-01-24T14:41:46;12.53;;;11.73;;
6197;SDS011;3132;42.622;23.328;2023-01-24T14:44:16;11.93;;;11.03;;
6197;SDS011;3132;42.622;23.328;2023-01-24T14:46:55;11.20;;;10.50;;
6197;SDS011;3132;42.622;23.328;2023-01-24T14:51:56;11.70;;;10.87;;
6197;SDS011;3132;42.622;23.328;2023-01-24T14:54:22;10.87;;;10.23;;
6197;SDS011;3132;42.622;23.328;2023-01-24T14:56:48;13.30;;;12.40;;
6197;SDS011;3132;42.622;23.328;2023-01-24T14:59:15;13.23;;;12.33;;
6197;SDS011;3132;42.622;23.328;2023-01-24T15:01:42;24.23;;;22.73;;
6197;SDS011;3132;42.622;23.328;2023-01-24T15:04:20;12.47;;;11.50;;
6197;SDS011;3132;42.622;23.328;2023-01-24T15:07:04;11.47;;;10.87;;
6197;SDS011;3132;42.622;23.328;2023-01-24T15:09:31;12.93;;;12.00;;
6197;SDS011;3132;42.622;23.328;2023-01-24T15:11:56;23.43;;;22.10;;
6197;SDS011;3132;42.622;23.328;2023-01-24T15:14:21;10.40;;;9.80;;
6197;SDS011;3132;42.622;23.328;2023-01-24T15:16:52;11.73;;;11.13;;
6197;SDS011;3132;42.622;23.328;2023-01-24T15:21:49;9.93;;;9.43;;
6197;SDS011;3132;42.622;23.328;2023-01-24T15:26:45;11.33;;;10.63;;
6197;SDS011;3132;42.622;23.328;2023-01-24T15:37:37;13.10;;;12.07;;
6197;SDS011;3132;42.622;23.328;2023-01-24T15:40:03;11.23;;;10.43;;
6197;SDS011;3132;42.622;23.328;2023-01-24T15:42:29;12.47;;;11.43;;
6197;SDS011;3132;42.622;23.328;2023-01-24T15:45:23;12.03;;;11.13;;
6197;SDS011;3132;42.622;23.328;2023-01-24T15:48:05;13.47;;;12.47;;
6197;SDS011;3132;42.622;23.328;2023-01-24T15:50:37;12.03;;;11.23;;
6197;SDS011;3132;42.622;23.328;2023-01-24T15:53:36;13.23;;;12.30;;
6197;SDS011;3132;42.622;23.328;2023-01-24T15:56:05;12.97;;;11.97;;
6197;SDS011;3132;42.622;23.328;2023-01-24T15:58:34;14.20;;;13.20;;
6197;SDS011;3132;42.622;23.328;2023-01-24T16:01:00;13.83;;;12.73;;
6197;SDS011;3132;42.622;23.328;2023-01-24T16:03:26;12.77;;;11.97;;
6197;SDS011;3132;42.622;23.328;2023-01-24T16:05:51;14.60;;;13.70;;
6197;SDS011;3132;42.622;23.328;2023-01-24T16:08:17;13.27;;;12.27;;
6197;SDS011;3132;42.622;23.328;2023-01-24T16:10:43;13.53;;;12.37;;
6197;SDS011;3132;42.622;23.328;2023-01-24T16:15:57;13.50;;;12.57;;
6197;SDS011;3132;42.622;23.328;2023-01-24T16:18:24;14.70;;;13.40;;
6197;SDS011;3132;42.622;23.328;2023-01-24T16:20:50;14.97;;;13.57;;
6197;SDS011;3132;42.622;23.328;2023-01-24T16:23:16;15.90;;;14.50;;
6197;SDS011;3132;42.622;23.328;2023-01-24T16:25:41;15.97;;;14.60;;
6197;SDS011;3132;42.622;23.328;2023-01-24T16:28:15;19.67;;;17.77;;
6197;SDS011;3132;42.622;23.328;2023-01-24T16:30:44;15.33;;;13.93;;
6197;SDS011;3132;42.622;23.328;2023-01-24T16:33:12;16.53;;;15.00;;
6197;SDS011;3132;42.622;23.328;2023-01-24T16:35:38;15.83;;;14.30;;
6197;SDS011;3132;42.622;23.328;2023-01-24T16:38:03;16.33;;;14.57;;
6197;SDS011;3132;42.622;23.328;2023-01-24T16:40:29;15.00;;;13.53;;
6197;SDS011;3132;42.622;23.328;2023-01-24T16:42:54;17.10;;;14.57;;
6197;SDS011;3132;42.622;23.328;2023-01-24T16:45:20;16.80;;;15.20;;
6197;SDS011;3132;42.622;23.328;2023-01-24T16:47:48;16.47;;;15.13;;
6197;SDS011;3132;42.622;23.328;2023-01-24T16:50:14;16.47;;;15.00;;
6197;SDS011;3132;42.622;23.328;2023-01-24T16:52:41;17.97;;;16.07;;
6197;SDS011;3132;42.622;23.328;2023-01-24T16:55:08;17.53;;;16.03;;
6197;SDS011;3132;42.622;23.328;2023-01-24T16:57:33;18.70;;;16.90;;
6197;SDS011;3132;42.622;23.328;2023-01-24T16:59:59;20.67;;;18.00;;
6197;SDS011;3132;42.622;23.328;2023-01-24T17:02:24;18.40;;;16.40;;
6197;SDS011;3132;42.622;23.328;2023-01-24T17:04:49;18.90;;;17.00;;
6197;SDS011;3132;42.622;23.328;2023-01-24T17:07:15;18.80;;;17.00;;
6197;SDS011;3132;42.622;23.328;2023-01-24T17:09:41;36.07;;;20.70;;
6197;SDS011;3132;42.622;23.328;2023-01-24T17:12:06;28.53;;;20.30;;
6197;SDS011;3132;42.622;23.328;2023-01-24T17:14:35;20.77;;;17.03;;
6197;SDS011;3132;42.622;23.328;2023-01-24T17:17:00;18.87;;;15.70;;
6197;SDS011;3132;42.622;23.328;2023-01-24T17:19:26;18.73;;;16.90;;
6197;SDS011;3132;42.622;23.328;2023-01-24T17:21:52;16.40;;;14.90;;
6197;SDS011;3132;42.622;23.328;2023-01-24T17:24:18;17.37;;;15.37;;
6197;SDS011;3132;42.622;23.328;2023-01-24T17:26:43;17.37;;;15.67;;